Burton City, Ohio
Current Conditions -  °F | °C
As of 6:56 PM on Monday 22 Dec 2014 (Local Time) from KBJJ Reporting Station
Clear Clear  
Wind Chill: 30°   Ceiling: Unl
Heat Index: 37°   Visibility: 9mi
Dew Point: 31°   Wind: 9mph
Humidity: 79%   Direction: 110°ESE
Pressure: 29.91"   Gusts: NA
Location:  40.8369°N, 81.7632°W
Report Text: KBJJ 222356Z AUTO 11008KT 9SM CLR 03/M01 A2991 RMK AO2 SLP143 T00281006 10056 20028 55012 TSNO
Loading
Personal Weather Stations






























Interactive Weather Map New forecast layout! Learn more

10-Day Weather Forecast

Advertisements
Track Severe Weather on mobile